sensor_id;sensor_type;location;lat;lon;timestamp;pressure;altitude;pressure_sealevel;temperature;humidity
55466;BME280;41329;41.594;23.810;2022-12-07T00:01:14;95376.34;;;8.86;73.15
55466;BME280;41329;41.594;23.810;2022-12-07T00:03:41;95385.81;;;8.85;73.23
55466;BME280;41329;41.594;23.810;2022-12-07T00:06:08;95325.19;;;8.54;72.98
55466;BME280;41329;41.594;23.810;2022-12-07T00:08:36;95380.81;;;8.90;73.35
55466;BME280;41329;41.594;23.810;2022-12-07T00:11:15;95360.03;;;8.77;73.12
55466;BME280;41329;41.594;23.810;2022-12-07T00:13:42;95360.09;;;8.81;73.13
55466;BME280;41329;41.594;23.810;2022-12-07T00:16:13;95381.53;;;8.87;73.28
55466;BME280;41329;41.594;23.810;2022-12-07T00:18:40;95381.63;;;8.91;73.31
55466;BME280;41329;41.594;23.810;2022-12-07T00:23:35;95366.31;;;8.78;73.29
55466;BME280;41329;41.594;23.810;2022-12-07T00:28:31;95372.47;;;8.87;73.19
55466;BME280;41329;41.594;23.810;2022-12-07T00:31:09;95361.53;;;8.75;73.61
55466;BME280;41329;41.594;23.810;2022-12-07T00:33:35;95350.84;;;8.73;73.61
55466;BME280;41329;41.594;23.810;2022-12-07T00:36:02;95350.06;;;8.73;73.43
55466;BME280;41329;41.594;23.810;2022-12-07T00:38:30;95367.66;;;8.84;73.56
55466;BME280;41329;41.594;23.810;2022-12-07T00:41:02;95349.34;;;8.76;73.66
55466;BME280;41329;41.594;23.810;2022-12-07T00:43:29;95364.59;;;8.89;73.68
55466;BME280;41329;41.594;23.810;2022-12-07T00:45:55;95359.09;;;8.89;73.57
55466;BME280;41329;41.594;23.810;2022-12-07T00:48:21;95350.66;;;8.82;73.38
55466;BME280;41329;41.594;23.810;2022-12-07T00:50:46;95339.47;;;8.75;73.18
55466;BME280;41329;41.594;23.810;2022-12-07T00:53:12;95313.72;;;8.52;73.16
55466;BME280;41329;41.594;23.810;2022-12-07T00:55:38;95355.81;;;8.83;73.25
55466;BME280;41329;41.594;23.810;2022-12-07T00:58:04;95339.13;;;8.61;73.39
55466;BME280;41329;41.594;23.810;2022-12-07T01:00:30;95347.56;;;8.68;73.53
55466;BME280;41329;41.594;23.810;2022-12-07T01:02:55;95339.66;;;8.66;73.66
55466;BME280;41329;41.594;23.810;2022-12-07T01:05:21;95289.84;;;8.25;73.78
55466;BME280;41329;41.594;23.810;2022-12-07T01:07:46;95310.56;;;8.34;74.35
55466;BME280;41329;41.594;23.810;2022-12-07T01:10:13;95320.50;;;8.39;74.26
55466;BME280;41329;41.594;23.810;2022-12-07T01:12:40;95335.69;;;8.48;74.09
55466;BME280;41329;41.594;23.810;2022-12-07T01:15:06;95342.81;;;8.49;74.18
55466;BME280;41329;41.594;23.810;2022-12-07T01:17:32;95340.84;;;8.50;73.98
55466;BME280;41329;41.594;23.810;2022-12-07T01:19:58;95335.34;;;8.50;74.05
55466;BME280;41329;41.594;23.810;2022-12-07T01:22:24;95327.41;;;8.48;73.93
55466;BME280;41329;41.594;23.810;2022-12-07T01:24:49;95329.13;;;8.37;74.20
55466;BME280;41329;41.594;23.810;2022-12-07T01:27:15;95330.28;;;8.36;74.36
55466;BME280;41329;41.594;23.810;2022-12-07T01:29:41;95298.19;;;8.28;74.30
55466;BME280;41329;41.594;23.810;2022-12-07T01:32:06;95307.00;;;8.34;74.59
55466;BME280;41329;41.594;23.810;2022-12-07T01:34:32;95295.78;;;8.27;74.48
55466;BME280;41329;41.594;23.810;2022-12-07T01:36:57;95321.03;;;8.44;74.39
55466;BME280;41329;41.594;23.810;2022-12-07T01:39:23;95327.59;;;8.40;74.66
55466;BME280;41329;41.594;23.810;2022-12-07T01:41:49;95323.53;;;8.34;74.84
55466;BME280;41329;41.594;23.810;2022-12-07T01:44:24;95319.19;;;8.33;75.08
55466;BME280;41329;41.594;23.810;2022-12-07T01:46:52;95327.97;;;8.38;74.90
55466;BME280;41329;41.594;23.810;2022-12-07T01:51:52;95317.72;;;8.39;75.00
55466;BME280;41329;41.594;23.810;2022-12-07T01:54:20;95314.63;;;8.40;74.80
55466;BME280;41329;41.594;23.810;2022-12-07T01:56:51;95302.97;;;8.47;74.89
55466;BME280;41329;41.594;23.810;2022-12-07T01:59:19;95308.06;;;8.45;74.96
55466;BME280;41329;41.594;23.810;2022-12-07T02:01:46;95310.88;;;8.48;74.91
55466;BME280;41329;41.594;23.810;2022-12-07T02:04:12;95296.75;;;8.50;74.74
55466;BME280;41329;41.594;23.810;2022-12-07T02:06:38;95301.78;;;8.48;74.85
55466;BME280;41329;41.594;23.810;2022-12-07T02:09:04;95305.44;;;8.52;74.63
55466;BME280;41329;41.594;23.810;2022-12-07T02:11:29;95304.72;;;8.55;74.74
55466;BME280;41329;41.594;23.810;2022-12-07T02:13:55;95300.72;;;8.52;74.56
55466;BME280;41329;41.594;23.810;2022-12-07T02:16:29;95295.75;;;8.58;74.60
55466;BME280;41329;41.594;23.810;2022-12-07T02:19:31;95304.38;;;8.56;74.49
55466;BME280;41329;41.594;23.810;2022-12-07T02:27:29;95289.75;;;8.37;74.49
55466;BME280;41329;41.594;23.810;2022-12-07T02:29:58;95289.28;;;8.35;74.48
55466;BME280;41329;41.594;23.810;2022-12-07T02:35:19;95287.41;;;8.39;74.62
55466;BME280;41329;41.594;23.810;2022-12-07T02:37:53;95266.97;;;8.24;74.67
55466;BME280;41329;41.594;23.810;2022-12-07T02:43:09;95273.03;;;8.30;74.70
55466;BME280;41329;41.594;23.810;2022-12-07T02:45:38;95257.13;;;8.23;74.48
55466;BME280;41329;41.594;23.810;2022-12-07T02:48:07;95283.00;;;8.34;74.58
55466;BME280;41329;41.594;23.810;2022-12-07T02:50:34;95271.44;;;8.29;74.43
55466;BME280;41329;41.594;23.810;2022-12-07T02:52:59;95283.78;;;8.35;74.58
55466;BME280;41329;41.594;23.810;2022-12-07T02:55:30;95278.19;;;8.16;74.99
55466;BME280;41329;41.594;23.810;2022-12-07T02:58:23;95279.84;;;8.20;74.84
55466;BME280;41329;41.594;23.810;2022-12-07T03:01:14;95283.09;;;8.22;74.57
55466;BME280;41329;41.594;23.810;2022-12-07T03:03:47;95281.00;;;8.19;74.66
55466;BME280;41329;41.594;23.810;2022-12-07T03:11:15;95279.78;;;8.17;74.52
55466;BME280;41329;41.594;23.810;2022-12-07T03:16:28;95284.34;;;8.25;74.73
55466;BME280;41329;41.594;23.810;2022-12-07T03:19:00;95276.84;;;8.25;74.93
55466;BME280;41329;41.594;23.810;2022-12-07T03:21:32;95281.66;;;8.28;74.78
55466;BME280;41329;41.594;23.810;2022-12-07T03:24:00;95279.72;;;8.29;74.76
55466;BME280;41329;41.594;23.810;2022-12-07T03:26:32;95277.38;;;8.31;74.60
55466;BME280;41329;41.594;23.810;2022-12-07T03:29:05;95261.72;;;8.19;74.51
55466;BME280;41329;41.594;23.810;2022-12-07T03:31:37;95280.59;;;8.33;74.22
55466;BME280;41329;41.594;23.810;2022-12-07T03:34:21;95281.75;;;8.32;74.12
55466;BME280;41329;41.594;23.810;2022-12-07T03:37:11;95284.94;;;8.34;74.17
55466;BME280;41329;41.594;23.810;2022-12-07T03:42:10;95283.00;;;8.34;73.79
55466;BME280;41329;41.594;23.810;2022-12-07T03:44:36;95273.31;;;8.25;73.70
55466;BME280;41329;41.594;23.810;2022-12-07T03:47:12;95289.56;;;8.30;73.88
55466;BME280;41329;41.594;23.810;2022-12-07T03:49:43;95281.66;;;8.28;73.84
55466;BME280;41329;41.594;23.810;2022-12-07T03:52:37;95270.97;;;8.27;74.01
55466;BME280;41329;41.594;23.810;2022-12-07T03:57:39;95277.66;;;8.26;74.06
55466;BME280;41329;41.594;23.810;2022-12-07T04:00:07;95267.34;;;8.23;73.92
55466;BME280;41329;41.594;23.810;2022-12-07T04:02:33;95270.91;;;8.23;73.79
55466;BME280;41329;41.594;23.810;2022-12-07T04:05:00;95266.56;;;8.22;73.63
55466;BME280;41329;41.594;23.810;2022-12-07T04:07:26;95262.53;;;8.20;73.39
55466;BME280;41329;41.594;23.810;2022-12-07T04:09:51;95250.09;;;8.10;73.32
55466;BME280;41329;41.594;23.810;2022-12-07T04:12:20;95254.63;;;8.18;73.30
55466;BME280;41329;41.594;23.810;2022-12-07T04:14:46;95251.41;;;8.16;73.01
55466;BME280;41329;41.594;23.810;2022-12-07T04:17:11;95231.78;;;8.02;72.91
55466;BME280;41329;41.594;23.810;2022-12-07T04:19:37;95241.03;;;8.10;72.69
55466;BME280;41329;41.594;23.810;2022-12-07T04:22:03;95255.97;;;8.09;72.66
55466;BME280;41329;41.594;23.810;2022-12-07T04:24:29;95244.25;;;7.96;72.72
55466;BME280;41329;41.594;23.810;2022-12-07T04:26:55;95260.16;;;8.03;72.53
55466;BME280;41329;41.594;23.810;2022-12-07T04:29:21;95258.91;;;8.00;72.60
55466;BME280;41329;41.594;23.810;2022-12-07T04:31:47;95252.06;;;7.94;72.35
55466;BME280;41329;41.594;23.810;2022-12-07T04:34:13;95248.44;;;7.90;72.29
55466;BME280;41329;41.594;23.810;2022-12-07T04:36:40;95257.50;;;7.91;72.66
55466;BME280;41329;41.594;23.810;2022-12-07T04:39:07;95256.16;;;7.85;72.93
55466;BME280;41329;41.594;23.810;2022-12-07T04:41:33;95264.53;;;7.88;72.91
55466;BME280;41329;41.594;23.810;2022-12-07T04:44:01;95266.81;;;7.86;72.96
55466;BME280;41329;41.594;23.810;2022-12-07T04:46:28;95255.25;;;7.81;73.18
55466;BME280;41329;41.594;23.810;2022-12-07T04:48:54;95214.06;;;7.53;73.46
55466;BME280;41329;41.594;23.810;2022-12-07T04:51:26;95265.66;;;7.72;73.75
55466;BME280;41329;41.594;23.810;2022-12-07T04:53:52;95247.00;;;7.65;74.28
55466;BME280;41329;41.594;23.810;2022-12-07T04:56:18;95270.19;;;7.80;74.49
55466;BME280;41329;41.594;23.810;2022-12-07T04:58:45;95267.09;;;7.81;74.56
55466;BME280;41329;41.594;23.810;2022-12-07T05:01:13;95263.97;;;7.83;74.52
55466;BME280;41329;41.594;23.810;2022-12-07T05:03:38;95262.81;;;7.84;74.53
55466;BME280;41329;41.594;23.810;2022-12-07T05:06:04;95258.22;;;7.72;74.78
55466;BME280;41329;41.594;23.810;2022-12-07T05:08:32;95273.41;;;7.82;74.48
55466;BME280;41329;41.594;23.810;2022-12-07T05:10:57;95260.78;;;7.81;74.71
55466;BME280;41329;41.594;23.810;2022-12-07T05:13:23;95260.00;;;7.80;74.41
55466;BME280;41329;41.594;23.810;2022-12-07T05:15:49;95262.00;;;7.83;74.54
55466;BME280;41329;41.594;23.810;2022-12-07T05:18:14;95264.41;;;7.85;74.53
55466;BME280;41329;41.594;23.810;2022-12-07T05:20:40;95253.41;;;7.85;74.29
55466;BME280;41329;41.594;23.810;2022-12-07T05:23:06;95249.41;;;7.82;74.04
55466;BME280;41329;41.594;23.810;2022-12-07T05:25:32;95250.84;;;7.76;74.01
55466;BME280;41329;41.594;23.810;2022-12-07T05:27:57;95253.94;;;7.75;73.57
55466;BME280;41329;41.594;23.810;2022-12-07T05:30:24;95248.53;;;7.63;73.65
55466;BME280;41329;41.594;23.810;2022-12-07T05:32:49;95250.72;;;7.57;73.75
55466;BME280;41329;41.594;23.810;2022-12-07T05:35:15;95267.44;;;7.49;74.30
55466;BME280;41329;41.594;23.810;2022-12-07T05:37:41;95271.78;;;7.50;74.10
55466;BME280;41329;41.594;23.810;2022-12-07T05:40:07;95272.19;;;7.36;74.19
55466;BME280;41329;41.594;23.810;2022-12-07T05:42:32;95272.03;;;7.29;74.21
55466;BME280;41329;41.594;23.810;2022-12-07T05:44:59;95270.75;;;7.27;74.00
55466;BME280;41329;41.594;23.810;2022-12-07T05:47:24;95277.06;;;7.27;74.36
55466;BME280;41329;41.594;23.810;2022-12-07T05:49:50;95291.28;;;7.29;74.51
55466;BME280;41329;41.594;23.810;2022-12-07T05:52:15;95311.69;;;7.28;74.25
55466;BME280;41329;41.594;23.810;2022-12-07T05:54:41;95297.41;;;7.23;74.46
55466;BME280;41329;41.594;23.810;2022-12-07T05:57:06;95307.94;;;7.21;74.78
55466;BME280;41329;41.594;23.810;2022-12-07T05:59:32;95285.56;;;7.07;75.10
55466;BME280;41329;41.594;23.810;2022-12-07T06:02:06;95302.00;;;7.19;75.55
55466;BME280;41329;41.594;23.810;2022-12-07T06:04:34;95291.75;;;7.04;75.92
55466;BME280;41329;41.594;23.810;2022-12-07T06:07:00;95308.91;;;7.13;76.28
55466;BME280;41329;41.594;23.810;2022-12-07T06:09:27;95299.47;;;7.14;76.53
55466;BME280;41329;41.594;23.810;2022-12-07T06:11:53;95300.84;;;7.20;76.85
55466;BME280;41329;41.594;23.810;2022-12-07T06:14:37;95309.75;;;7.29;76.74
55466;BME280;41329;41.594;23.810;2022-12-07T06:17:03;95308.50;;;7.26;77.24
55466;BME280;41329;41.594;23.810;2022-12-07T06:19:29;95292.94;;;7.18;77.51
55466;BME280;41329;41.594;23.810;2022-12-07T06:21:54;95297.78;;;7.37;77.62
55466;BME280;41329;41.594;23.810;2022-12-07T06:24:20;95292.38;;;7.40;78.22
55466;BME280;41329;41.594;23.810;2022-12-07T06:26:46;95289.47;;;7.49;78.20
55466;BME280;41329;41.594;23.810;2022-12-07T06:29:12;95270.53;;;7.47;78.24
55466;BME280;41329;41.594;23.810;2022-12-07T06:31:38;95292.56;;;7.63;78.17
55466;BME280;41329;41.594;23.810;2022-12-07T06:34:07;95300.31;;;7.73;77.82
55466;BME280;41329;41.594;23.810;2022-12-07T06:36:34;95300.41;;;7.76;77.94
55466;BME280;41329;41.594;23.810;2022-12-07T06:38:59;95303.44;;;7.71;77.91
55466;BME280;41329;41.594;23.810;2022-12-07T06:41:24;95306.91;;;7.84;78.46
55466;BME280;41329;41.594;23.810;2022-12-07T06:43:50;95264.78;;;7.68;78.44
55466;BME280;41329;41.594;23.810;2022-12-07T06:46:16;95305.38;;;8.02;78.14
55466;BME280;41329;41.594;23.810;2022-12-07T06:48:42;95307.88;;;8.07;77.69
55466;BME280;41329;41.594;23.810;2022-12-07T06:51:08;95310.91;;;8.17;77.86
55466;BME280;41329;41.594;23.810;2022-12-07T06:53:34;95319.34;;;8.24;77.46
55466;BME280;41329;41.594;23.810;2022-12-07T06:56:00;95263.44;;;7.93;76.78
55466;BME280;41329;41.594;23.810;2022-12-07T06:58:25;95324.59;;;8.29;76.82
55466;BME280;41329;41.594;23.810;2022-12-07T07:00:51;95325.41;;;8.30;76.74
55466;BME280;41329;41.594;23.810;2022-12-07T07:03:16;95321.06;;;8.29;76.38
55466;BME280;41329;41.594;23.810;2022-12-07T07:05:43;95319.94;;;8.18;76.18
55466;BME280;41329;41.594;23.810;2022-12-07T07:08:08;95327.97;;;8.23;76.42
55466;BME280;41329;41.594;23.810;2022-12-07T07:10:34;95305.91;;;7.92;76.45
55466;BME280;41329;41.594;23.810;2022-12-07T07:13:00;95327.38;;;7.55;76.83
55466;BME280;41329;41.594;23.810;2022-12-07T07:15:26;95320.50;;;7.34;77.61
55466;BME280;41329;41.594;23.810;2022-12-07T07:17:51;95319.81;;;7.37;78.01
55466;BME280;41329;41.594;23.810;2022-12-07T07:20:17;95324.63;;;7.55;77.96
55466;BME280;41329;41.594;23.810;2022-12-07T07:22:42;95326.72;;;7.74;78.16
55466;BME280;41329;41.594;23.810;2022-12-07T07:25:08;95321.00;;;7.82;78.01
55466;BME280;41329;41.594;23.810;2022-12-07T07:27:33;95319.69;;;7.76;77.78
55466;BME280;41329;41.594;23.810;2022-12-07T07:29:58;95325.56;;;7.90;77.58
55466;BME280;41329;41.594;23.810;2022-12-07T07:32:24;95321.28;;;8.08;77.78
55466;BME280;41329;41.594;23.810;2022-12-07T07:34:49;95320.88;;;8.22;78.28
55466;BME280;41329;41.594;23.810;2022-12-07T07:37:15;95316.50;;;8.36;78.30
55466;BME280;41329;41.594;23.810;2022-12-07T07:39:40;95310.00;;;8.44;78.27
55466;BME280;41329;41.594;23.810;2022-12-07T07:42:06;95317.16;;;8.64;78.81
55466;BME280;41329;41.594;23.810;2022-12-07T07:44:33;95320.59;;;8.77;78.51
55466;BME280;41329;41.594;23.810;2022-12-07T07:46:58;95326.50;;;8.94;77.99
55466;BME280;41329;41.594;23.810;2022-12-07T07:49:24;95317.22;;;9.02;77.10
55466;BME280;41329;41.594;23.810;2022-12-07T07:51:49;95310.00;;;8.98;75.85
55466;BME280;41329;41.594;23.810;2022-12-07T07:54:15;95328.78;;;9.08;75.57
55466;BME280;41329;41.594;23.810;2022-12-07T07:56:40;95334.72;;;8.91;74.99
55466;BME280;41329;41.594;23.810;2022-12-07T07:59:06;95318.81;;;8.84;74.91
55466;BME280;41329;41.594;23.810;2022-12-07T08:01:31;95313.66;;;8.67;74.84
55466;BME280;41329;41.594;23.810;2022-12-07T08:03:56;95330.22;;;8.67;74.52
55466;BME280;41329;41.594;23.810;2022-12-07T08:06:22;95326.31;;;8.68;74.65
55466;BME280;41329;41.594;23.810;2022-12-07T08:08:47;95329.84;;;8.69;74.65
55466;BME280;41329;41.594;23.810;2022-12-07T08:11:13;95340.94;;;8.53;74.33
55466;BME280;41329;41.594;23.810;2022-12-07T08:13:39;95336.50;;;8.49;73.85
55466;BME280;41329;41.594;23.810;2022-12-07T08:16:08;95333.28;;;8.47;73.95
55466;BME280;41329;41.594;23.810;2022-12-07T08:18:38;95337.91;;;8.43;74.50
55466;BME280;41329;41.594;23.810;2022-12-07T08:21:05;95338.91;;;8.35;74.51
55466;BME280;41329;41.594;23.810;2022-12-07T08:23:31;95333.03;;;8.36;74.62
55466;BME280;41329;41.594;23.810;2022-12-07T08:26:04;95340.78;;;8.31;74.93
55466;BME280;41329;41.594;23.810;2022-12-07T08:28:30;95333.06;;;8.21;75.25
55466;BME280;41329;41.594;23.810;2022-12-07T08:31:13;95332.56;;;8.19;75.24
55466;BME280;41329;41.594;23.810;2022-12-07T08:33:39;95334.91;;;8.32;75.60
55466;BME280;41329;41.594;23.810;2022-12-07T08:36:07;95328.75;;;8.39;75.87
55466;BME280;41329;41.594;23.810;2022-12-07T08:38:34;95327.06;;;8.50;76.02
55466;BME280;41329;41.594;23.810;2022-12-07T08:41:00;95333.81;;;8.52;75.91
55466;BME280;41329;41.594;23.810;2022-12-07T08:43:26;95324.38;;;8.53;75.85
55466;BME280;41329;41.594;23.810;2022-12-07T08:48:32;95325.75;;;8.78;75.57
55466;BME280;41329;41.594;23.810;2022-12-07T08:51:01;95329.53;;;8.55;75.33
55466;BME280;41329;41.594;23.810;2022-12-07T08:53:27;95317.28;;;8.52;75.53
55466;BME280;41329;41.594;23.810;2022-12-07T08:55:53;95321.94;;;8.67;75.38
55466;BME280;41329;41.594;23.810;2022-12-07T08:58:18;95301.50;;;8.68;75.08
55466;BME280;41329;41.594;23.810;2022-12-07T09:00:44;95300.09;;;8.78;75.00
55466;BME280;41329;41.594;23.810;2022-12-07T09:03:09;95286.31;;;8.78;74.52
55466;BME280;41329;41.594;23.810;2022-12-07T09:05:35;95311.19;;;8.97;74.60
55466;BME280;41329;41.594;23.810;2022-12-07T09:08:01;95302.09;;;8.96;74.36
55466;BME280;41329;41.594;23.810;2022-12-07T09:10:28;95301.78;;;8.82;74.40
55466;BME280;41329;41.594;23.810;2022-12-07T09:12:53;95295.63;;;8.89;74.42
55466;BME280;41329;41.594;23.810;2022-12-07T09:15:19;95305.00;;;8.84;74.03
55466;BME280;41329;41.594;23.810;2022-12-07T09:17:44;95279.38;;;8.49;74.32
55466;BME280;41329;41.594;23.810;2022-12-07T09:20:10;95293.50;;;8.63;74.70
55466;BME280;41329;41.594;23.810;2022-12-07T09:22:36;95296.94;;;8.76;74.77
55466;BME280;41329;41.594;23.810;2022-12-07T09:25:02;95288.72;;;8.60;75.12
55466;BME280;41329;41.594;23.810;2022-12-07T09:27:30;95293.81;;;8.77;74.90
55466;BME280;41329;41.594;23.810;2022-12-07T09:29:55;95268.63;;;8.79;75.02
55466;BME280;41329;41.594;23.810;2022-12-07T09:32:21;95266.94;;;8.74;75.01
55466;BME280;41329;41.594;23.810;2022-12-07T09:34:47;95279.72;;;8.82;75.17
55466;BME280;41329;41.594;23.810;2022-12-07T09:37:12;95256.03;;;8.62;75.17
55466;BME280;41329;41.594;23.810;2022-12-07T09:39:38;95254.84;;;8.79;74.61
55466;BME280;41329;41.594;23.810;2022-12-07T09:42:05;95260.56;;;8.89;74.46
55466;BME280;41329;41.594;23.810;2022-12-07T09:44:32;95274.28;;;9.05;74.14
55466;BME280;41329;41.594;23.810;2022-12-07T09:46:58;95270.44;;;9.09;73.83
55466;BME280;41329;41.594;23.810;2022-12-07T09:49:25;95267.47;;;9.18;73.97
55466;BME280;41329;41.594;23.810;2022-12-07T09:54:36;95257.19;;;9.37;73.87
55466;BME280;41329;41.594;23.810;2022-12-07T09:57:02;95241.00;;;9.36;73.80
55466;BME280;41329;41.594;23.810;2022-12-07T09:59:28;95235.91;;;9.38;73.44
55466;BME280;41329;41.594;23.810;2022-12-07T10:01:55;95245.69;;;9.54;73.38
55466;BME280;41329;41.594;23.810;2022-12-07T10:04:25;95239.06;;;9.59;72.97
55466;BME280;41329;41.594;23.810;2022-12-07T10:06:52;95229.56;;;9.56;73.12
55466;BME280;41329;41.594;23.810;2022-12-07T10:09:20;95247.53;;;9.69;72.96
55466;BME280;41329;41.594;23.810;2022-12-07T10:12:02;95226.91;;;9.63;72.72
55466;BME280;41329;41.594;23.810;2022-12-07T10:14:30;95227.44;;;9.72;72.90
55466;BME280;41329;41.594;23.810;2022-12-07T10:16:56;95231.25;;;9.87;73.03
55466;BME280;41329;41.594;23.810;2022-12-07T10:19:28;95227.03;;;9.93;73.06
55466;BME280;41329;41.594;23.810;2022-12-07T10:24:25;95219.63;;;10.00;72.16
55466;BME280;41329;41.594;23.810;2022-12-07T10:26:52;95212.72;;;10.10;72.59
55466;BME280;41329;41.594;23.810;2022-12-07T10:29:21;95208.53;;;10.19;72.66
55466;BME280;41329;41.594;23.810;2022-12-07T10:34:38;95205.81;;;10.23;71.58
55466;BME280;41329;41.594;23.810;2022-12-07T10:39:47;95195.50;;;9.97;71.28
55466;BME280;41329;41.594;23.810;2022-12-07T10:42:28;95200.66;;;9.99;71.42
55466;BME280;41329;41.594;23.810;2022-12-07T10:45:12;95201.63;;;10.06;70.92
55466;BME280;41329;41.594;23.810;2022-12-07T10:47:44;95203.84;;;10.01;71.38
55466;BME280;41329;41.594;23.810;2022-12-07T10:50:41;95200.25;;;9.97;71.40
55466;BME280;41329;41.594;23.810;2022-12-07T11:01:54;95186.50;;;10.04;71.30
55466;BME280;41329;41.594;23.810;2022-12-07T11:04:38;95179.59;;;10.13;71.36
55466;BME280;41329;41.594;23.810;2022-12-07T11:07:45;95181.25;;;10.18;71.46
55466;BME280;41329;41.594;23.810;2022-12-07T11:10:24;95175.06;;;10.28;71.51
55466;BME280;41329;41.594;23.810;2022-12-07T11:13:11;95183.50;;;10.38;70.96
55466;BME280;41329;41.594;23.810;2022-12-07T11:18:23;95166.47;;;10.62;71.61
55466;BME280;41329;41.594;23.810;2022-12-07T11:21:05;95161.47;;;10.75;71.24
55466;BME280;41329;41.594;23.810;2022-12-07T11:26:13;95137.25;;;11.01;71.11
55466;BME280;41329;41.594;23.810;2022-12-07T11:31:43;95135.09;;;11.21;69.98
55466;BME280;41329;41.594;23.810;2022-12-07T11:37:25;95126.59;;;11.40;67.71
55466;BME280;41329;41.594;23.810;2022-12-07T11:40:02;95115.97;;;11.45;69.21
55466;BME280;41329;41.594;23.810;2022-12-07T11:42:33;95117.41;;;11.72;69.35
55466;BME280;41329;41.594;23.810;2022-12-07T11:47:45;95118.22;;;11.76;66.23
55466;BME280;41329;41.594;23.810;2022-12-07T12:03:38;95100.34;;;11.27;65.33
55466;BME280;41329;41.594;23.810;2022-12-07T12:06:06;95097.00;;;11.07;65.87
55466;BME280;41329;41.594;23.810;2022-12-07T12:09:02;95085.41;;;10.95;66.19
55466;BME280;41329;41.594;23.810;2022-12-07T12:11:40;95088.59;;;10.97;66.08
55466;BME280;41329;41.594;23.810;2022-12-07T12:20:47;95083.09;;;11.00;65.67
55466;BME280;41329;41.594;23.810;2022-12-07T12:23:23;95065.63;;;10.96;66.33
55466;BME280;41329;41.594;23.810;2022-12-07T12:25:57;95065.00;;;11.10;66.34
55466;BME280;41329;41.594;23.810;2022-12-07T12:28:49;95075.28;;;11.13;65.81
55466;BME280;41329;41.594;23.810;2022-12-07T12:31:36;95070.88;;;11.05;65.62
55466;BME280;41329;41.594;23.810;2022-12-07T12:36:55;95056.72;;;11.17;66.31
55466;BME280;41329;41.594;23.810;2022-12-07T12:39:20;95061.22;;;11.28;66.26
55466;BME280;41329;41.594;23.810;2022-12-07T12:47:01;95070.38;;;11.39;65.41
55466;BME280;41329;41.594;23.810;2022-12-07T12:49:37;95072.72;;;11.34;65.32
55466;BME280;41329;41.594;23.810;2022-12-07T12:57:35;95047.78;;;11.34;65.61
55466;BME280;41329;41.594;23.810;2022-12-07T13:00:19;95017.56;;;11.15;64.54
55466;BME280;41329;41.594;23.810;2022-12-07T13:02:53;95060.97;;;11.47;65.14
55466;BME280;41329;41.594;23.810;2022-12-07T13:05:22;95064.09;;;11.42;64.83
55466;BME280;41329;41.594;23.810;2022-12-07T13:23:24;95063.28;;;11.42;64.70
55466;BME280;41329;41.594;23.810;2022-12-07T13:26:14;95067.31;;;11.51;64.63
55466;BME280;41329;41.594;23.810;2022-12-07T13:29:03;95064.56;;;11.55;64.80
55466;BME280;41329;41.594;23.810;2022-12-07T13:31:46;95062.50;;;11.41;64.50
55466;BME280;41329;41.594;23.810;2022-12-07T13:34:32;95073.28;;;11.53;64.58
55466;BME280;41329;41.594;23.810;2022-12-07T13:37:00;95058.66;;;11.56;64.96
55466;BME280;41329;41.594;23.810;2022-12-07T13:39:27;95059.94;;;11.66;65.42
55466;BME280;41329;41.594;23.810;2022-12-07T13:41:58;95031.22;;;11.91;68.08
55466;BME280;41329;41.594;23.810;2022-12-07T13:44:26;95050.56;;;12.60;68.27
55466;BME280;41329;41.594;23.810;2022-12-07T13:49:24;95057.06;;;14.04;66.86
55466;BME280;41329;41.594;23.810;2022-12-07T13:51:50;95052.59;;;14.48;63.26
55466;BME280;41329;41.594;23.810;2022-12-07T13:54:16;95044.19;;;14.59;61.97
55466;BME280;41329;41.594;23.810;2022-12-07T13:56:43;95045.59;;;14.98;61.98
55466;BME280;41329;41.594;23.810;2022-12-07T13:59:26;95037.41;;;15.39;60.79
55466;BME280;41329;41.594;23.810;2022-12-07T14:01:53;95055.63;;;15.54;56.66
55466;BME280;41329;41.594;23.810;2022-12-07T14:04:35;95045.09;;;15.14;55.26
55466;BME280;41329;41.594;23.810;2022-12-07T14:07:21;95053.63;;;14.82;54.51
55466;BME280;41329;41.594;23.810;2022-12-07T14:10:03;95053.44;;;14.31;55.15
55466;BME280;41329;41.594;23.810;2022-12-07T14:12:30;95044.34;;;13.96;55.84
55466;BME280;41329;41.594;23.810;2022-12-07T14:14:59;95040.44;;;13.76;56.60
55466;BME280;41329;41.594;23.810;2022-12-07T14:17:26;95044.00;;;13.52;57.40
55466;BME280;41329;41.594;23.810;2022-12-07T14:19:55;95049.16;;;13.39;57.67
55466;BME280;41329;41.594;23.810;2022-12-07T14:22:36;95045.56;;;13.11;58.47
55466;BME280;41329;41.594;23.810;2022-12-07T14:25:22;95032.44;;;12.97;58.66
55466;BME280;41329;41.594;23.810;2022-12-07T14:27:51;95050.72;;;13.02;59.35
55466;BME280;41329;41.594;23.810;2022-12-07T14:30:18;95055.44;;;12.94;59.56
55466;BME280;41329;41.594;23.810;2022-12-07T14:32:44;95053.44;;;12.88;59.66
55466;BME280;41329;41.594;23.810;2022-12-07T14:35:16;95054.59;;;12.80;59.81
55466;BME280;41329;41.594;23.810;2022-12-07T14:37:44;95053.38;;;12.67;60.21
55466;BME280;41329;41.594;23.810;2022-12-07T14:40:14;95056.91;;;12.64;60.15
55466;BME280;41329;41.594;23.810;2022-12-07T14:42:39;95005.63;;;12.22;60.38
55466;BME280;41329;41.594;23.810;2022-12-07T14:45:13;95060.03;;;12.48;60.43
55466;BME280;41329;41.594;23.810;2022-12-07T14:47:39;95056.41;;;12.37;60.61
55466;BME280;41329;41.594;23.810;2022-12-07T14:50:05;95048.41;;;12.25;61.12
55466;BME280;41329;41.594;23.810;2022-12-07T14:52:31;95065.88;;;12.29;61.05
55466;BME280;41329;41.594;23.810;2022-12-07T14:54:56;95060.28;;;12.22;61.11
55466;BME280;41329;41.594;23.810;2022-12-07T14:57:22;95042.38;;;12.02;61.26
55466;BME280;41329;41.594;23.810;2022-12-07T14:59:48;95064.56;;;12.09;61.39
55466;BME280;41329;41.594;23.810;2022-12-07T15:02:14;95053.81;;;11.97;61.73
55466;BME280;41329;41.594;23.810;2022-12-07T15:04:40;95041.50;;;11.87;61.62
55466;BME280;41329;41.594;23.810;2022-12-07T15:07:15;95052.56;;;11.87;62.33